Time;durP1;ratioP1;P1;durP2;ratioP2;P2;SDS_P1;SDS_P2;PMS_P1;PMS_P2;Temp;Humidity;BMP_temperature;BMP_pressure;BME280_temperature;BME280_humidity;BME280_pressure;Samples;Min_cycle;Max_cycle;Signal;HPM_P1;HPM_P2
2022/12/03 00:00:32;;;;;;;12.70;6.93;;;-1.50;99.90;;;;;;5057803;28;20059;-65
2022/12/03 00:02:59;;;;;;;15.05;8.82;;;-1.50;99.90;;;;;;5063483;28;20044;-62
2022/12/03 00:05:26;;;;;;;13.02;6.75;;;-1.50;99.90;;;;;;5061479;28;20054;-63
2022/12/03 00:07:53;;;;;;;11.60;7.38;;;-1.40;99.90;;;;;;5061653;28;20059;-64
2022/12/03 00:10:20;;;;;;;11.73;6.57;;;-1.50;99.90;;;;;;5049795;28;20051;-63
2022/12/03 00:12:47;;;;;;;13.98;8.15;;;-1.40;99.90;;;;;;5054142;28;20717;-64
2022/12/03 00:15:14;;;;;;;9.43;7.63;;;-1.40;99.90;;;;;;5056876;28;20058;-63
2022/12/03 00:17:41;;;;;;;10.15;6.70;;;-1.40;99.90;;;;;;5058136;28;20171;-63
2022/12/03 00:20:15;;;;;;;9.65;7.00;;;-1.50;99.90;;;;;;5060196;28;20048;-62
2022/12/03 00:22:42;;;;;;;12.77;6.22;;;-1.40;99.90;;;;;;5052179;28;20045;-65
2022/12/03 00:25:09;;;;;;;8.45;6.38;;;-1.40;99.90;;;;;;5062295;28;20128;-65
2022/12/03 00:27:36;;;;;;;10.10;6.95;;;-1.40;99.90;;;;;;5059638;28;20381;-64
2022/12/03 00:30:04;;;;;;;8.93;6.82;;;-1.40;99.90;;;;;;5058593;28;20625;-63
2022/12/03 00:32:31;;;;;;;12.07;7.38;;;-1.50;99.90;;;;;;5056494;28;20496;-64
2022/12/03 00:34:58;;;;;;;14.77;7.82;;;-1.50;99.90;;;;;;5059903;28;20055;-62
2022/12/03 00:37:25;;;;;;;9.65;6.50;;;-1.50;99.90;;;;;;5057149;28;20150;-64
2022/12/03 00:39:52;;;;;;;12.50;7.15;;;-1.60;99.90;;;;;;5058553;28;20075;-64
2022/12/03 00:42:19;;;;;;;10.02;6.90;;;-1.60;99.90;;;;;;5052309;28;20391;-63
2022/12/03 00:44:49;;;;;;;9.95;6.47;;;-1.60;99.90;;;;;;5043495;27;20442;-62
2022/12/03 00:47:29;;;;;;;8.38;6.95;;;-1.70;99.90;;;;;;5053241;28;20095;-62
2022/12/03 00:49:56;;;;;;;9.30;6.30;;;-1.70;99.90;;;;;;5059977;28;20058;-63
2022/12/03 00:52:23;;;;;;;10.07;6.70;;;-1.70;99.90;;;;;;5064623;28;20127;-64
2022/12/03 00:54:50;;;;;;;12.55;7.18;;;-1.70;99.90;;;;;;5056558;28;20058;-62
2022/12/03 00:57:17;;;;;;;10.70;7.18;;;-1.70;99.90;;;;;;5056751;28;20492;-64
2022/12/03 00:59:44;;;;;;;13.85;7.75;;;-1.70;99.90;;;;;;5062211;28;20048;-63
2022/12/03 01:02:11;;;;;;;11.32;7.07;;;-1.70;99.90;;;;;;5067003;28;20075;-63
2022/12/03 01:04:38;;;;;;;7.63;5.85;;;-1.80;99.90;;;;;;5059621;28;20094;-64
2022/12/03 01:07:05;;;;;;;11.18;6.53;;;-1.80;99.90;;;;;;5065925;28;20060;-62
2022/12/03 01:09:32;;;;;;;10.13;7.13;;;-1.80;99.90;;;;;;5064764;28;20854;-62
2022/12/03 01:11:59;;;;;;;12.27;7.18;;;-1.80;99.90;;;;;;5061365;28;20154;-62
2022/12/03 01:14:26;;;;;;;14.95;7.25;;;-1.80;99.90;;;;;;5060030;27;20060;-65
2022/12/03 01:16:53;;;;;;;9.75;6.30;;;-1.80;99.90;;;;;;5063404;27;20060;-62
2022/12/03 01:19:20;;;;;;;12.48;7.45;;;-1.80;99.90;;;;;;5057372;28;20052;-65
2022/12/03 01:21:49;;;;;;;12.40;7.82;;;-1.80;99.90;;;;;;5058908;28;20052;-64
2022/12/03 01:24:17;;;;;;;14.63;7.25;;;-1.90;99.90;;;;;;5070636;28;20487;-62
2022/12/03 01:26:44;;;;;;;9.52;7.15;;;-1.90;99.90;;;;;;5056011;28;20145;-67
2022/12/03 01:29:11;;;;;;;12.60;7.72;;;-1.90;99.90;;;;;;5066233;28;20048;-62
2022/12/03 01:34:23;;;;;;;10.85;6.45;;;-1.80;99.90;;;;;;5057940;28;20404;-62
2022/12/03 01:36:51;;;;;;;11.07;6.72;;;-1.90;99.90;;;;;;5059539;27;20465;-62
2022/12/03 01:39:18;;;;;;;9.02;6.13;;;-1.80;99.90;;;;;;5060335;28;20067;-63
2022/12/03 01:41:47;;;;;;;14.55;6.50;;;-1.80;99.90;;;;;;5059307;28;20128;-65
2022/12/03 01:44:18;;;;;;;11.25;7.82;;;-1.80;99.90;;;;;;5060688;28;20048;-61
2022/12/03 01:46:46;;;;;;;14.73;6.80;;;-1.80;99.90;;;;;;5054966;28;20053;-62
2022/12/03 01:49:19;;;;;;;11.20;7.00;;;-1.80;99.90;;;;;;5064742;28;20052;-63
2022/12/03 01:51:47;;;;;;;13.13;7.72;;;-1.70;99.90;;;;;;5061808;28;20211;-64
2022/12/03 01:54:18;;;;;;;14.75;6.85;;;-1.70;99.90;;;;;;5065507;28;20045;-61
2022/12/03 01:56:46;;;;;;;9.68;7.30;;;-1.70;99.90;;;;;;5061465;28;20392;-63
2022/12/03 01:59:20;;;;;;;9.07;6.43;;;-1.70;99.90;;;;;;5063530;28;20505;-64
2022/12/03 02:01:47;;;;;;;9.55;7.00;;;-1.70;99.90;;;;;;5066888;28;20048;-66
2022/12/03 02:04:15;;;;;;;10.82;6.70;;;-1.60;99.90;;;;;;5064872;28;20040;-65
2022/12/03 02:06:43;;;;;;;12.95;7.10;;;-1.70;99.90;;;;;;5060185;28;20095;-62
2022/12/03 02:09:12;;;;;;;11.70;7.22;;;-1.70;99.90;;;;;;5062507;28;20049;-62
2022/12/03 02:11:43;;;;;;;8.90;6.65;;;-1.60;99.90;;;;;;5058897;28;20052;-65
2022/12/03 02:14:15;;;;;;;10.68;7.25;;;-1.60;99.90;;;;;;5058025;28;20848;-62
2022/12/03 02:16:42;;;;;;;9.38;6.78;;;-1.60;99.90;;;;;;5065607;28;20045;-62
2022/12/03 02:19:30;;;;;;;12.98;6.95;;;-1.60;99.90;;;;;;5058305;28;20097;-68
2022/12/03 02:22:02;;;;;;;15.07;7.90;;;-1.60;99.90;;;;;;5062484;28;20125;-63
2022/12/03 02:24:52;;;;;;;12.15;8.35;;;-1.70;99.90;;;;;;5053717;28;20128;-66
2022/12/03 02:27:20;;;;;;;8.93;7.22;;;-1.70;99.90;;;;;;5060577;28;20440;-62
2022/12/03 02:29:47;;;;;;;13.70;7.20;;;-1.70;99.90;;;;;;5062299;28;20062;-64
2022/12/03 02:32:14;;;;;;;12.15;7.53;;;-1.70;99.90;;;;;;5061090;28;20045;-64
2022/12/03 02:34:43;;;;;;;12.75;7.85;;;-1.80;99.90;;;;;;5054444;28;20049;-62
2022/12/03 02:37:16;;;;;;;13.25;6.50;;;-1.80;99.90;;;;;;5060272;28;20082;-63
2022/12/03 02:39:49;;;;;;;11.60;7.47;;;-1.80;99.90;;;;;;5062510;28;20062;-64
2022/12/03 02:42:34;;;;;;;11.63;6.88;;;-1.80;99.90;;;;;;5056571;28;20214;-63
2022/12/03 02:45:21;;;;;;;12.63;7.55;;;-1.80;99.90;;;;;;5060143;28;20102;-62
2022/12/03 02:47:56;;;;;;;10.98;6.63;;;-1.80;99.90;;;;;;5056309;28;20041;-63
2022/12/03 02:50:27;;;;;;;13.02;7.00;;;-1.80;99.90;;;;;;5062814;28;20048;-62
2022/12/03 02:52:57;;;;;;;10.98;8.13;;;-1.80;99.90;;;;;;5059524;28;20049;-67
2022/12/03 02:55:25;;;;;;;11.70;7.07;;;-1.80;99.90;;;;;;5058036;28;20139;-65
2022/12/03 02:57:53;;;;;;;18.23;8.60;;;-1.80;99.90;;;;;;5060694;28;20379;-63
2022/12/03 03:00:21;;;;;;;12.43;7.07;;;-1.80;99.90;;;;;;5054933;28;20136;-62
2022/12/03 03:02:52;;;;;;;13.77;6.65;;;-1.80;99.90;;;;;;5056511;28;20041;-64
2022/12/03 03:05:22;;;;;;;11.95;6.80;;;-1.80;99.90;;;;;;5062116;28;20161;-62
2022/12/03 03:07:52;;;;;;;8.68;7.15;;;-1.80;99.90;;;;;;5057093;28;20079;-63
2022/12/03 03:10:21;;;;;;;13.63;7.50;;;-1.70;99.90;;;;;;5059766;28;20499;-62
2022/12/03 03:12:49;;;;;;;11.50;7.85;;;-1.70;99.90;;;;;;5064394;28;20155;-66
2022/12/03 03:15:16;;;;;;;13.40;7.63;;;-1.70;99.90;;;;;;5059259;28;20068;-62
2022/12/03 03:17:43;;;;;;;12.63;7.85;;;-1.60;99.90;;;;;;5059002;28;20135;-63
2022/12/03 03:20:12;;;;;;;13.27;8.52;;;-1.60;99.90;;;;;;5061302;28;20051;-63
2022/12/03 03:22:41;;;;;;;12.38;8.77;;;-1.60;99.90;;;;;;5052915;28;20056;-64
2022/12/03 03:25:11;;;;;;;10.00;6.95;;;-1.60;99.90;;;;;;5055715;28;20048;-62
2022/12/03 03:27:40;;;;;;;14.52;7.90;;;-1.60;99.90;;;;;;5062639;28;20072;-64
2022/12/03 03:30:08;;;;;;;12.18;8.32;;;-1.50;99.90;;;;;;5061294;28;20131;-64
2022/12/03 03:32:37;;;;;;;10.45;6.50;;;-1.50;99.90;;;;;;5058691;28;20044;-62
2022/12/03 03:35:05;;;;;;;11.50;7.55;;;-1.50;99.90;;;;;;5060058;28;20048;-64
2022/12/03 03:37:32;;;;;;;13.15;7.25;;;-1.50;99.90;;;;;;5055748;28;20069;-61
2022/12/03 03:39:59;;;;;;;13.60;7.75;;;-1.40;99.90;;;;;;5055568;28;20739;-64
2022/12/03 03:42:26;;;;;;;15.27;8.35;;;-1.40;99.90;;;;;;5061960;28;20052;-63
2022/12/03 03:44:53;;;;;;;17.10;9.40;;;-1.40;99.90;;;;;;5054414;28;20047;-62
2022/12/03 03:47:22;;;;;;;12.75;7.43;;;-1.40;99.90;;;;;;5059227;28;20055;-63
2022/12/03 03:49:49;;;;;;;14.95;8.80;;;-1.40;99.90;;;;;;5060409;28;20057;-62
2022/12/03 03:52:18;;;;;;;15.02;8.95;;;-1.30;99.90;;;;;;5060074;28;20132;-62
2022/12/03 03:54:45;;;;;;;11.25;8.27;;;-1.30;99.90;;;;;;5056559;28;20579;-63
2022/12/03 03:57:13;;;;;;;12.68;9.15;;;-1.30;99.90;;;;;;5053676;28;20068;-62
2022/12/03 03:59:40;;;;;;;16.92;8.43;;;-1.20;99.90;;;;;;5061478;28;20463;-64
2022/12/03 04:02:19;;;;;;;12.27;7.78;;;-1.20;99.90;;;;;;5059410;28;20139;-64
2022/12/03 04:04:47;;;;;;;15.75;8.98;;;-1.20;99.90;;;;;;5052935;28;23810;-66
2022/12/03 04:07:33;;;;;;;12.18;7.85;;;-1.20;99.90;;;;;;5060705;28;20056;-62
2022/12/03 04:13:05;;;;;;;13.90;8.25;;;-1.20;99.90;;;;;;5055278;28;20164;-63
2022/12/03 04:15:32;;;;;;;15.32;10.00;;;-1.20;99.90;;;;;;5059920;28;20533;-62
2022/12/03 04:20:44;;;;;;;13.82;8.63;;;-1.10;99.90;;;;;;5053905;28;20126;-64
2022/12/03 04:23:12;;;;;;;15.07;9.10;;;-1.10;99.90;;;;;;5063096;28;20068;-64
2022/12/03 04:36:40;;;;;;;16.05;9.13;;;-0.90;99.90;;;;;;5060967;28;20088;-67
2022/12/03 04:39:07;;;;;;;16.42;9.38;;;-0.90;99.90;;;;;;5053178;28;20055;-64
2022/12/03 04:41:34;;;;;;;15.90;9.63;;;-0.90;99.90;;;;;;5059739;28;20139;-62
2022/12/03 04:46:46;;;;;;;11.93;8.50;;;-0.90;99.90;;;;;;5057043;28;20052;-65
2022/12/03 04:49:13;;;;;;;17.13;10.35;;;-0.90;99.90;;;;;;5058731;28;20047;-62
2022/12/03 04:51:40;;;;;;;17.40;11.23;;;-0.80;99.90;;;;;;5059636;28;20135;-67
2022/12/03 04:54:07;;;;;;;15.02;8.82;;;-0.80;99.90;;;;;;5060236;28;20135;-63
2022/12/03 04:56:33;;;;;;;16.83;10.60;;;-0.80;99.90;;;;;;5049098;28;20115;-62
2022/12/03 04:59:00;;;;;;;13.90;9.23;;;-0.80;99.90;;;;;;5061611;28;20135;-67
2022/12/03 05:01:27;;;;;;;15.45;10.05;;;-0.80;99.90;;;;;;5060354;28;20131;-63
2022/12/03 05:03:54;;;;;;;14.50;9.50;;;-0.80;99.90;;;;;;5052924;28;20049;-65
2022/12/03 05:06:22;;;;;;;17.52;11.02;;;-0.80;99.90;;;;;;5057523;28;20076;-62
2022/12/03 05:08:49;;;;;;;13.02;9.52;;;-0.70;99.90;;;;;;5055528;28;20052;-63
2022/12/03 05:11:15;;;;;;;15.40;10.70;;;-0.70;99.90;;;;;;5059003;28;20048;-62
2022/12/03 05:13:42;;;;;;;16.13;9.70;;;-0.70;99.90;;;;;;5063225;28;20040;-67
2022/12/03 05:16:09;;;;;;;17.05;9.73;;;-0.70;99.90;;;;;;5063136;27;20102;-64
2022/12/03 05:18:36;;;;;;;13.15;9.32;;;-0.70;99.90;;;;;;5058249;28;20438;-62
2022/12/03 05:21:03;;;;;;;19.25;10.40;;;-0.60;99.90;;;;;;5051074;28;20132;-65
2022/12/03 05:23:31;;;;;;;14.55;9.00;;;-0.60;99.90;;;;;;5056076;28;20090;-62
2022/12/03 05:25:58;;;;;;;13.38;9.50;;;-0.60;99.90;;;;;;5055772;28;20086;-63
2022/12/03 05:28:24;;;;;;;13.23;10.50;;;-0.60;99.90;;;;;;5059584;28;20601;-66
2022/12/03 05:30:51;;;;;;;12.00;8.35;;;-0.60;99.90;;;;;;5058121;28;20050;-65
2022/12/03 05:33:19;;;;;;;12.07;9.05;;;-0.60;99.90;;;;;;5058300;28;20098;-65
2022/12/03 05:35:46;;;;;;;18.55;10.25;;;-0.60;99.90;;;;;;5060776;28;20041;-66
2022/12/03 05:38:13;;;;;;;15.30;9.73;;;-0.60;99.90;;;;;;5061630;28;20059;-62
2022/12/03 05:40:40;;;;;;;12.73;8.95;;;-0.60;99.90;;;;;;5060432;28;20052;-62
2022/12/03 05:43:07;;;;;;;16.05;10.32;;;-0.50;99.90;;;;;;5060754;28;20119;-64
2022/12/03 05:45:36;;;;;;;14.85;10.38;;;-0.50;99.90;;;;;;5061860;28;20036;-62
2022/12/03 05:48:04;;;;;;;19.92;9.50;;;-0.50;99.90;;;;;;5057473;28;20570;-62
2022/12/03 05:50:34;;;;;;;15.20;9.70;;;-0.50;99.90;;;;;;5056686;28;20056;-66
2022/12/03 05:53:13;;;;;;;15.90;9.13;;;-0.50;99.90;;;;;;5065249;28;20041;-63
2022/12/03 05:55:40;;;;;;;12.43;8.88;;;-0.50;99.90;;;;;;5056496;28;20189;-64
2022/12/03 05:58:08;;;;;;;14.68;8.38;;;-0.50;99.90;;;;;;5055081;28;20698;-62
2022/12/03 06:00:37;;;;;;;14.93;9.20;;;-0.40;99.90;;;;;;5059875;28;20438;-63
2022/12/03 06:03:09;;;;;;;14.02;9.23;;;-0.40;99.90;;;;;;5064353;28;20123;-64
2022/12/03 06:05:36;;;;;;;15.38;9.13;;;-0.40;99.90;;;;;;5054354;28;20098;-61
2022/12/03 06:08:03;;;;;;;17.48;10.13;;;-0.40;99.90;;;;;;5056545;28;20061;-64
2022/12/03 06:10:31;;;;;;;13.15;9.27;;;-0.40;99.90;;;;;;5056073;28;20049;-65
2022/12/03 06:12:58;;;;;;;13.00;9.27;;;-0.40;99.90;;;;;;5063973;28;20449;-63
2022/12/03 06:15:25;;;;;;;12.55;8.73;;;-0.40;99.90;;;;;;5063007;28;20063;-63
2022/12/03 06:17:52;;;;;;;14.52;8.10;;;-0.40;99.90;;;;;;5063492;28;20045;-65
2022/12/03 06:20:19;;;;;;;11.32;6.72;;;-0.40;99.90;;;;;;5060722;28;20966;-63
2022/12/03 06:22:47;;;;;;;10.90;6.88;;;-0.40;99.90;;;;;;5055368;28;20064;-66
2022/12/03 06:25:15;;;;;;;13.80;7.90;;;-0.40;99.90;;;;;;5060620;28;20577;-66
2022/12/03 06:27:42;;;;;;;11.02;7.40;;;-0.50;99.90;;;;;;5064602;28;20169;-62
2022/12/03 06:30:11;;;;;;;10.73;7.18;;;-0.50;99.90;;;;;;5063646;28;20053;-64
2022/12/03 06:32:38;;;;;;;10.98;7.43;;;-0.40;99.90;;;;;;5059646;28;20133;-67
2022/12/03 06:35:05;;;;;;;9.18;6.22;;;-0.40;99.90;;;;;;5063216;28;20048;-62
2022/12/03 06:37:32;;;;;;;14.02;6.88;;;-0.50;99.90;;;;;;5062353;28;20105;-62
2022/12/03 06:39:59;;;;;;;11.77;6.40;;;-0.50;99.90;;;;;;5063363;28;20052;-64
2022/12/03 06:42:25;;;;;;;11.82;7.10;;;-0.40;99.90;;;;;;5058098;28;20044;-62
2022/12/03 06:44:52;;;;;;;12.75;6.47;;;-0.50;99.90;;;;;;5059577;28;20048;-63
2022/12/03 06:47:20;;;;;;;9.38;5.68;;;-0.40;99.90;;;;;;5057301;28;20105;-65
2022/12/03 06:49:47;;;;;;;14.05;6.45;;;-0.40;99.90;;;;;;5060074;28;20044;-64
2022/12/03 06:52:14;;;;;;;9.18;5.55;;;-0.40;99.90;;;;;;5060685;28;20150;-63
2022/12/03 06:54:40;;;;;;;9.93;6.47;;;-0.40;99.90;;;;;;5057394;28;20047;-65
2022/12/03 06:57:07;;;;;;;8.90;5.78;;;-0.30;99.90;;;;;;5059024;28;20045;-63
2022/12/03 06:59:36;;;;;;;9.07;5.75;;;-0.30;99.90;;;;;;5062201;28;20064;-65
2022/12/03 07:02:03;;;;;;;8.15;5.32;;;-0.20;99.90;;;;;;5057075;28;20432;-66
2022/12/03 07:04:30;;;;;;;9.65;5.82;;;-0.20;99.90;;;;;;5055167;28;20155;-63
2022/12/03 07:06:57;;;;;;;9.65;5.80;;;-0.20;99.90;;;;;;5061307;28;20064;-65
2022/12/03 07:09:24;;;;;;;14.70;6.22;;;-0.20;99.90;;;;;;5058152;28;20102;-67
2022/12/03 07:11:51;;;;;;;10.20;7.80;;;-0.10;99.90;;;;;;5062153;28;20131;-64
2022/12/03 07:14:18;;;;;;;9.25;7.68;;;-0.10;99.90;;;;;;5060916;28;20127;-63
2022/12/03 07:16:46;;;;;;;11.57;6.93;;;-0.10;99.90;;;;;;5058076;27;20056;-64
2022/12/03 07:19:13;;;;;;;8.40;6.30;;;-0.20;99.90;;;;;;5056451;28;20044;-62
2022/12/03 07:21:40;;;;;;;12.57;6.97;;;-0.10;99.90;;;;;;5064416;28;20153;-65
2022/12/03 07:24:07;;;;;;;11.43;7.60;;;-0.10;99.90;;;;;;5057943;28;20133;-64
2022/12/03 07:26:34;;;;;;;25.33;8.85;;;-0.20;99.90;;;;;;5058440;28;20144;-62
2022/12/03 07:29:01;;;;;;;12.00;8.90;;;-0.10;99.90;;;;;;5065078;28;20049;-63
2022/12/03 07:31:28;;;;;;;15.48;8.82;;;-0.10;99.90;;;;;;5065376;28;20066;-67
2022/12/03 07:33:55;;;;;;;12.48;8.13;;;-0.10;99.90;;;;;;5053301;28;20556;-63
2022/12/03 07:36:22;;;;;;;9.73;6.88;;;-0.10;99.90;;;;;;5060263;28;20048;-63
2022/12/03 07:38:49;;;;;;;14.55;8.82;;;-0.10;99.90;;;;;;5059621;28;20087;-65
2022/12/03 07:41:16;;;;;;;9.80;6.93;;;-0.10;99.90;;;;;;5058636;28;20222;-62
2022/12/03 07:43:44;;;;;;;10.85;9.70;;;-0.10;99.90;;;;;;5056258;28;20056;-63
2022/12/03 07:46:11;;;;;;;10.75;7.20;;;-0.10;99.90;;;;;;5057811;28;20523;-65
2022/12/03 07:48:38;;;;;;;12.15;8.20;;;-0.10;99.90;;;;;;5056192;28;20152;-62
2022/12/03 07:51:05;;;;;;;19.50;10.32;;;-0.10;99.90;;;;;;5056397;28;20047;-62
2022/12/03 07:53:32;;;;;;;10.02;8.07;;;-0.10;99.90;;;;;;5057891;28;20159;-66
2022/12/03 07:56:00;;;;;;;11.00;7.50;;;-0.10;99.90;;;;;;5057945;28;20045;-62
2022/12/03 07:58:27;;;;;;;13.63;8.25;;;-0.10;99.90;;;;;;5060219;28;20489;-64
2022/12/03 08:00:53;;;;;;;12.25;7.68;;;0.00;99.90;;;;;;5047288;28;21166;-65
2022/12/03 08:03:20;;;;;;;11.05;7.72;;;0.00;99.90;;;;;;5066489;28;20041;-62
2022/12/03 08:05:47;;;;;;;15.20;8.88;;;0.00;99.90;;;;;;5062662;28;20055;-63
2022/12/03 08:08:14;;;;;;;13.60;8.50;;;0.00;99.90;;;;;;5061856;28;20139;-63
2022/12/03 08:10:41;;;;;;;17.85;8.43;;;0.00;99.90;;;;;;5058431;28;20050;-63
2022/12/03 08:13:17;;;;;;;12.40;7.82;;;0.00;99.90;;;;;;5057578;28;20113;-63
2022/12/03 08:15:44;;;;;;;15.63;8.68;;;0.00;99.90;;;;;;5058006;28;20500;-65
2022/12/03 08:18:18;;;;;;;11.90;7.65;;;0.00;99.90;;;;;;5054806;28;20483;-62
2022/12/03 08:20:47;;;;;;;13.60;6.97;;;0.10;99.90;;;;;;5051916;28;20560;-67
2022/12/03 08:23:23;;;;;;;11.52;7.40;;;0.10;99.90;;;;;;5055758;28;20070;-63
2022/12/03 08:25:51;;;;;;;12.52;7.63;;;0.10;99.90;;;;;;5057058;28;20151;-62
2022/12/03 08:28:25;;;;;;;12.68;7.03;;;0.20;99.90;;;;;;5060420;28;20121;-66
2022/12/03 08:31:11;;;;;;;12.05;6.93;;;0.20;99.90;;;;;;5056647;28;20040;-63
2022/12/03 08:33:39;;;;;;;11.18;6.88;;;0.20;99.90;;;;;;5056377;28;20049;-62
2022/12/03 08:36:24;;;;;;;18.80;6.85;;;0.30;99.90;;;;;;5054796;28;20411;-62
2022/12/03 08:38:54;;;;;;;9.43;4.88;;;0.30;99.90;;;;;;5057863;28;20747;-62
2022/12/03 08:44:27;;;;;;;8.77;5.68;;;0.50;99.90;;;;;;5056355;28;20048;-62
2022/12/03 08:47:11;;;;;;;9.73;5.30;;;0.50;99.90;;;;;;5059576;28;20041;-67
2022/12/03 08:49:39;;;;;;;8.43;5.22;;;0.50;99.90;;;;;;5055962;28;20139;-62
2022/12/03 08:52:17;;;;;;;8.57;6.47;;;0.60;99.90;;;;;;5061004;28;20773;-64
2022/12/03 08:54:53;;;;;;;7.60;5.40;;;0.60;99.90;;;;;;5057832;28;20045;-64
2022/12/03 08:57:25;;;;;;;10.75;5.80;;;0.60;99.90;;;;;;5052782;28;20049;-63
2022/12/03 09:00:14;;;;;;;8.05;5.78;;;0.60;99.90;;;;;;5056073;28;20383;-62
2022/12/03 09:02:46;;;;;;;10.05;5.68;;;0.60;99.90;;;;;;5061267;28;20060;-62
2022/12/03 09:05:19;;;;;;;10.75;6.13;;;0.60;99.90;;;;;;5058595;28;20062;-64
2022/12/03 09:07:46;;;;;;;10.95;7.78;;;0.60;99.90;;;;;;5059102;28;20063;-63
2022/12/03 09:10:14;;;;;;;9.77;5.72;;;0.60;99.90;;;;;;5059466;28;20125;-65
2022/12/03 09:12:40;;;;;;;11.43;5.93;;;0.60;99.90;;;;;;5061343;28;20494;-63
2022/12/03 09:15:08;;;;;;;14.13;6.65;;;0.60;99.90;;;;;;5060581;28;20051;-62
2022/12/03 09:17:34;;;;;;;17.75;6.60;;;0.60;99.90;;;;;;5058567;28;20131;-65
2022/12/03 09:20:02;;;;;;;27.45;8.68;;;0.60;99.90;;;;;;5058902;28;20082;-62
2022/12/03 09:22:29;;;;;;;14.57;6.90;;;0.60;99.90;;;;;;5061789;28;20136;-63
2022/12/03 09:24:56;;;;;;;13.68;4.88;;;0.70;99.90;;;;;;5065914;28;20506;-64
2022/12/03 09:27:23;;;;;;;14.77;6.50;;;0.70;99.90;;;;;;5060646;28;20053;-64
2022/12/03 09:29:50;;;;;;;20.25;6.93;;;0.60;99.90;;;;;;5066288;28;20078;-63
2022/12/03 09:32:17;;;;;;;15.82;7.18;;;0.70;99.90;;;;;;5062391;28;20107;-64
2022/12/03 09:34:45;;;;;;;14.63;6.55;;;0.70;99.90;;;;;;5062013;28;20053;-66
2022/12/03 09:37:12;;;;;;;14.50;6.32;;;0.70;99.90;;;;;;5058277;28;20055;-63
2022/12/03 09:39:39;;;;;;;15.70;6.55;;;0.80;99.90;;;;;;5063825;28;20143;-64
2022/12/03 09:42:06;;;;;;;16.00;7.53;;;0.80;99.90;;;;;;5057151;28;20131;-62
2022/12/03 09:44:34;;;;;;;14.20;8.50;;;0.80;99.90;;;;;;5059808;28;20139;-64
2022/12/03 09:47:03;;;;;;;12.50;7.70;;;0.80;99.90;;;;;;5060515;28;20045;-63
2022/12/03 09:49:32;;;;;;;8.38;5.60;;;0.80;99.90;;;;;;5062789;28;20135;-62
2022/12/03 09:52:01;;;;;;;15.18;7.00;;;0.90;99.90;;;;;;5059552;28;20138;-63
2022/12/03 09:54:30;;;;;;;14.10;6.22;;;0.90;99.90;;;;;;5064007;28;20090;-66
2022/12/03 09:57:01;;;;;;;8.98;5.53;;;0.90;99.90;;;;;;5061106;28;20051;-63
2022/12/03 09:59:32;;;;;;;16.27;6.68;;;1.00;99.90;;;;;;5057938;28;20043;-62
2022/12/03 10:02:00;;;;;;;8.32;5.32;;;1.00;99.90;;;;;;5056952;28;20089;-65
2022/12/03 10:04:30;;;;;;;12.23;6.35;;;1.00;99.90;;;;;;5061696;28;20044;-63
2022/12/03 10:06:57;;;;;;;8.27;5.63;;;1.00;99.90;;;;;;5059413;28;20047;-65
2022/12/03 10:09:27;;;;;;;9.00;6.10;;;1.00;99.90;;;;;;5053845;28;20598;-65
2022/12/03 10:11:58;;;;;;;12.85;6.05;;;1.10;99.90;;;;;;5063267;28;20060;-63
2022/12/03 10:14:26;;;;;;;14.07;6.95;;;1.00;99.90;;;;;;5063104;28;20556;-63
2022/12/03 10:16:53;;;;;;;11.15;5.82;;;1.10;99.90;;;;;;5062212;28;20081;-63
2022/12/03 10:19:30;;;;;;;14.45;7.03;;;1.10;99.90;;;;;;5057904;28;20045;-63
2022/12/03 10:21:57;;;;;;;9.77;6.22;;;1.10;99.90;;;;;;5059302;28;20386;-63
2022/12/03 10:24:27;;;;;;;12.63;5.72;;;1.10;99.90;;;;;;5059628;28;20052;-64
2022/12/03 10:27:23;;;;;;;16.92;7.43;;;1.10;99.90;;;;;;5061177;28;20037;-63
2022/12/03 10:30:16;;;;;;;14.63;5.82;;;1.10;99.90;;;;;;5061670;28;20129;-62
2022/12/03 10:32:46;;;;;;;12.52;6.90;;;1.10;99.90;;;;;;5060403;28;20160;-64
2022/12/03 10:35:16;;;;;;;8.25;6.00;;;1.20;99.90;;;;;;5061856;28;20227;-63
2022/12/03 10:38:02;;;;;;;10.25;5.50;;;1.10;99.90;;;;;;5059719;28;20090;-63
2022/12/03 10:40:32;;;;;;;9.52;5.38;;;1.20;99.90;;;;;;5059951;28;20056;-63
2022/12/03 10:43:23;;;;;;;8.98;5.50;;;1.20;99.90;;;;;;5058335;28;20040;-62
2022/12/03 10:46:01;;;;;;;10.55;6.35;;;1.20;99.90;;;;;;5056780;28;20070;-66
2022/12/03 10:48:38;;;;;;;9.35;5.05;;;1.20;99.90;;;;;;5059602;28;20833;-62
2022/12/03 10:51:12;;;;;;;7.65;4.68;;;1.20;99.90;;;;;;5061311;28;20051;-64
2022/12/03 10:53:40;;;;;;;9.95;5.47;;;1.20;99.90;;;;;;5060258;28;20538;-62
2022/12/03 10:56:12;;;;;;;19.92;6.47;;;1.20;99.90;;;;;;5059713;28;20164;-63
2022/12/03 10:58:40;;;;;;;5.90;4.78;;;1.20;99.90;;;;;;5055853;28;20668;-63
2022/12/03 11:01:20;;;;;;;8.38;4.65;;;1.20;99.90;;;;;;5059899;28;20036;-62
2022/12/03 11:03:48;;;;;;;5.63;4.53;;;1.20;99.90;;;;;;5059290;28;20049;-63
2022/12/03 11:06:21;;;;;;;10.23;5.85;;;1.20;99.90;;;;;;5062293;28;20049;-62
2022/12/03 11:08:51;;;;;;;9.98;5.80;;;1.30;99.90;;;;;;5056054;28;20048;-64
2022/12/03 11:11:25;;;;;;;12.77;6.72;;;1.30;99.90;;;;;;5057406;28;20177;-63
2022/12/03 11:14:01;;;;;;;10.32;5.10;;;1.30;99.90;;;;;;5060108;28;20155;-62
2022/12/03 11:16:40;;;;;;;11.52;4.82;;;1.30;99.90;;;;;;5060483;28;20060;-66
2022/12/03 11:19:41;;;;;;;10.32;5.72;;;1.30;99.90;;;;;;5055745;28;20049;-63
2022/12/03 11:22:08;;;;;;;8.48;4.70;;;1.30;99.90;;;;;;5061404;28;20131;-63
2022/12/03 11:24:37;;;;;;;6.05;4.72;;;1.30;99.90;;;;;;5053139;28;20049;-64
2022/12/03 11:27:15;;;;;;;7.30;4.25;;;1.30;99.90;;;;;;5065133;28;20076;-63
2022/12/03 11:29:52;;;;;;;10.68;6.07;;;1.30;99.90;;;;;;5055342;28;20072;-63
2022/12/03 11:32:37;;;;;;;9.63;4.63;;;1.30;99.90;;;;;;5057753;28;20052;-63
2022/12/03 11:35:24;;;;;;;8.55;5.45;;;1.30;99.90;;;;;;5056554;28;20125;-63
2022/12/03 11:37:51;;;;;;;8.43;5.18;;;1.30;99.90;;;;;;5059462;28;20388;-63
2022/12/03 11:40:18;;;;;;;13.27;5.50;;;1.20;99.90;;;;;;5059803;28;20067;-64
2022/12/03 11:42:46;;;;;;;10.15;4.90;;;1.20;99.90;;;;;;5059888;28;20171;-64
2022/12/03 11:45:16;;;;;;;7.25;5.15;;;1.30;99.90;;;;;;5052761;28;20045;-63
2022/12/03 11:47:58;;;;;;;11.50;4.60;;;1.30;99.90;;;;;;5062473;28;20490;-63
2022/12/03 11:50:37;;;;;;;7.05;4.20;;;1.30;99.90;;;;;;5059147;28;20445;-64
2022/12/03 11:53:14;;;;;;;;;;;1.20;99.90;;;;;;5057809;28;20508;-64
2022/12/03 11:55:46;;;;;;;9.23;4.63;;;1.30;99.90;;;;;;5056542;28;19950;-64
2022/12/03 11:58:23;;;;;;;8.70;5.20;;;1.30;99.90;;;;;;5055756;28;20072;-63
2022/12/03 12:00:55;;;;;;;12.90;5.43;;;1.30;99.90;;;;;;5050046;28;20131;-63
2022/12/03 12:03:24;;;;;;;8.20;4.93;;;1.30;99.90;;;;;;5058497;28;20053;-62
2022/12/03 12:06:09;;;;;;;10.00;5.00;;;1.30;99.90;;;;;;5060338;28;20040;-64
2022/12/03 12:08:54;;;;;;;11.07;6.68;;;1.30;99.90;;;;;;5057072;28;20044;-64
2022/12/03 12:11:24;;;;;;;11.25;5.72;;;1.30;99.90;;;;;;5056747;28;20047;-62
2022/12/03 12:14:07;;;;;;;17.75;6.80;;;1.30;99.90;;;;;;5061020;28;20052;-64
2022/12/03 12:16:40;;;;;;;18.55;5.82;;;1.30;99.90;;;;;;5057222;28;20060;-67
2022/12/03 12:19:41;;;;;;;19.48;6.90;;;1.30;99.90;;;;;;5057866;28;20222;-64
2022/12/03 12:22:16;;;;;;;11.32;6.40;;;1.30;99.90;;;;;;5065236;28;20048;-63
2022/12/03 12:24:50;;;;;;;14.93;6.50;;;1.30;99.90;;;;;;5053644;28;20045;-63
2022/12/03 12:27:19;;;;;;;10.70;5.68;;;1.30;99.90;;;;;;5059540;28;20059;-63
2022/12/03 12:29:56;;;;;;;11.27;5.70;;;1.30;99.90;;;;;;5060547;28;20049;-63
2022/12/03 12:32:29;;;;;;;11.77;6.45;;;1.30;99.90;;;;;;5060060;28;20048;-64
2022/12/03 12:35:12;;;;;;;22.98;6.93;;;1.30;99.90;;;;;;5055998;28;20098;-62
2022/12/03 12:38:04;;;;;;;12.02;6.32;;;1.30;99.90;;;;;;5057230;28;20049;-62
2022/12/03 12:40:34;;;;;;;10.00;6.45;;;1.30;99.90;;;;;;5055218;28;20055;-64
2022/12/03 12:43:23;;;;;;;6.50;5.13;;;1.20;99.90;;;;;;5057927;28;20075;-62
2022/12/03 12:45:55;;;;;;;15.20;6.97;;;1.20;99.90;;;;;;5061445;28;20319;-63
2022/12/03 12:48:32;;;;;;;12.52;6.63;;;1.20;99.90;;;;;;5062119;28;20110;-64
2022/12/03 12:51:07;;;;;;;15.70;7.15;;;1.20;99.90;;;;;;5058558;28;20114;-65
2022/12/03 12:53:36;;;;;;;30.42;7.10;;;1.20;99.90;;;;;;5062991;28;20131;-63
2022/12/03 12:56:23;;;;;;;19.83;8.25;;;1.20;99.90;;;;;;5064627;28;20063;-62
2022/12/03 12:58:51;;;;;;;12.45;7.43;;;1.20;99.90;;;;;;5062100;28;20166;-63
2022/12/03 13:01:28;;;;;;;15.88;6.50;;;1.20;99.90;;;;;;5060501;28;20629;-63
2022/12/03 13:03:55;;;;;;;9.32;5.88;;;1.20;99.90;;;;;;5061186;28;20067;-62
2022/12/03 13:06:27;;;;;;;17.67;7.25;;;1.20;99.90;;;;;;5066697;28;20044;-63
2022/12/03 13:08:55;;;;;;;11.63;7.35;;;1.20;99.90;;;;;;5058740;28;20139;-64
2022/12/03 13:11:44;;;;;;;25.27;8.07;;;1.20;99.90;;;;;;5065505;28;20049;-62
2022/12/03 13:14:19;;;;;;;17.92;7.13;;;1.20;99.90;;;;;;5062888;28;20059;-62
2022/12/03 13:16:52;;;;;;;14.27;7.05;;;1.20;99.90;;;;;;5067807;28;20495;-64
2022/12/03 13:19:25;;;;;;;11.98;6.95;;;1.20;99.90;;;;;;5061210;28;20083;-64
2022/12/03 13:21:54;;;;;;;15.75;7.47;;;1.20;99.90;;;;;;5063770;28;20040;-62
2022/12/03 13:24:49;;;;;;;9.90;7.30;;;1.20;99.90;;;;;;5064765;28;20079;-62